createdAt,value
2022-10-18T00:01:24.033Z,14.10
2022-10-18T00:03:56.334Z,14.10
2022-10-18T00:06:28.378Z,14.40
2022-10-18T00:09:00.324Z,14.30
2022-10-18T00:11:33.731Z,13.30
2022-10-18T00:14:05.744Z,12.10
2022-10-18T00:16:38.471Z,12.30
2022-10-18T00:19:12.522Z,12.00
2022-10-18T00:24:22.108Z,11.80
2022-10-18T00:26:54.324Z,12.70
2022-10-18T00:29:26.294Z,12.50
2022-10-18T00:31:58.325Z,12.20
2022-10-18T00:34:30.648Z,11.30
2022-10-18T00:37:02.665Z,11.80
2022-10-18T00:39:35.726Z,11.40
2022-10-18T00:42:07.833Z,10.80
2022-10-18T00:45:08.668Z,11.80
2022-10-18T00:47:41.111Z,10.70
2022-10-18T00:50:13.524Z,11.20
2022-10-18T00:52:48.293Z,11.00
2022-10-18T00:55:20.841Z,10.40
2022-10-18T01:00:30.428Z,11.10
2022-10-18T01:03:02.456Z,10.50
2022-10-18T01:05:37.333Z,10.50
2022-10-18T01:08:29.671Z,11.90
2022-10-18T01:11:18.955Z,10.60
2022-10-18T01:14:08.170Z,10.20
2022-10-18T01:16:46.276Z,10.80
2022-10-18T01:19:42.199Z,10.10
2022-10-18T01:22:22.925Z,10.30
2022-10-18T01:25:08.289Z,10.10
2022-10-18T01:27:50.024Z,9.90
2022-10-18T01:30:44.896Z,9.60
2022-10-18T01:33:25.912Z,9.40
2022-10-18T01:36:02.315Z,9.30
2022-10-18T01:38:36.349Z,10.10
2022-10-18T01:41:14.804Z,8.70
2022-10-18T01:43:51.172Z,8.70
2022-10-18T01:46:26.981Z,8.70
2022-10-18T01:49:00.267Z,8.30
2022-10-18T01:51:33.945Z,8.30
2022-10-18T01:54:06.318Z,8.10
2022-10-18T01:56:48.982Z,8.20
2022-10-18T01:59:48.105Z,8.40
2022-10-18T02:02:30.827Z,7.80
2022-10-18T02:05:12.425Z,8.40
2022-10-18T02:08:00.412Z,8.60
2022-10-18T02:10:51.017Z,8.00
2022-10-18T02:13:26.394Z,8.70
2022-10-18T02:16:11.399Z,9.10
2022-10-18T02:18:48.072Z,9.40
2022-10-18T02:21:22.379Z,9.30
2022-10-18T02:23:55.554Z,9.00
2022-10-18T02:26:28.301Z,8.40
2022-10-18T02:29:00.508Z,10.50
2022-10-18T02:31:37.465Z,9.50
2022-10-18T02:34:17.926Z,10.20
2022-10-18T02:39:24.649Z,9.20
2022-10-18T02:41:58.230Z,10.10
2022-10-18T02:44:30.784Z,10.10
2022-10-18T02:47:03.043Z,9.60
2022-10-18T02:49:35.381Z,8.80
2022-10-18T02:52:08.728Z,9.10
2022-10-18T02:54:42.108Z,8.70
2022-10-18T02:57:14.180Z,9.10
2022-10-18T02:59:46.481Z,9.10
2022-10-18T03:02:18.411Z,9.50
2022-10-18T03:04:50.454Z,8.40
2022-10-18T03:07:22.398Z,9.50
2022-10-18T03:09:54.666Z,9.50
2022-10-18T03:12:26.625Z,9.30
2022-10-18T03:14:58.681Z,9.50
2022-10-18T03:17:31.092Z,9.40
2022-10-18T03:20:03.300Z,9.20
2022-10-18T03:22:35.475Z,10.40
2022-10-18T03:25:08.112Z,9.40
2022-10-18T03:27:40.166Z,9.60
2022-10-18T03:30:14.141Z,10.10
2022-10-18T03:32:46.029Z,9.30
2022-10-18T03:35:18.349Z,33.30
2022-10-18T03:41:03.527Z,11.10
2022-10-18T03:43:35.436Z,9.20
2022-10-18T03:46:08.065Z,10.10
2022-10-18T03:48:39.974Z,9.50
2022-10-18T03:51:12.155Z,33.00
2022-10-18T03:53:44.166Z,311.00
2022-10-18T03:56:16.124Z,40.40
2022-10-18T03:58:48.318Z,16.50
2022-10-18T04:01:20.400Z,14.90
2022-10-18T04:03:52.609Z,10.20
2022-10-18T04:06:24.806Z,10.30
2022-10-18T04:08:57.444Z,10.30
2022-10-18T04:11:29.423Z,10.10
2022-10-18T04:14:01.458Z,11.50
2022-10-18T04:16:33.820Z,10.10
2022-10-18T04:19:05.739Z,9.40
2022-10-18T04:21:37.743Z,9.90
2022-10-18T04:24:10.133Z,9.20
2022-10-18T04:26:42.176Z,9.50
2022-10-18T04:29:14.354Z,9.00
2022-10-18T04:31:46.659Z,8.80
2022-10-18T04:34:18.629Z,8.40
2022-10-18T04:36:50.652Z,9.50
2022-10-18T04:39:23.208Z,8.60
2022-10-18T04:41:55.153Z,9.30
2022-10-18T04:44:27.138Z,8.50
2022-10-18T04:46:59.083Z,10.80
2022-10-18T04:49:31.190Z,8.20
2022-10-18T04:52:03.176Z,7.70
2022-10-18T04:54:35.216Z,7.70
2022-10-18T04:57:07.329Z,8.70
2022-10-18T04:59:39.199Z,7.40
2022-10-18T05:02:15.275Z,8.70
2022-10-18T05:04:47.173Z,8.50
2022-10-18T05:07:19.135Z,10.10
2022-10-18T05:09:51.136Z,8.70
2022-10-18T05:12:23.421Z,9.10
2022-10-18T05:14:56.811Z,8.20
2022-10-18T05:17:28.913Z,8.40
2022-10-18T05:20:00.949Z,7.80
2022-10-18T05:22:33.364Z,9.00
2022-10-18T05:25:06.040Z,8.50
2022-10-18T05:27:38.008Z,9.50
2022-10-18T05:30:45.188Z,9.20
2022-10-18T05:33:17.216Z,9.50
2022-10-18T05:35:49.165Z,8.90
2022-10-18T05:38:21.291Z,8.40
2022-10-18T05:40:53.370Z,8.40
2022-10-18T05:43:28.969Z,8.20
2022-10-18T05:46:01.042Z,8.10
2022-10-18T05:48:33.165Z,8.10
2022-10-18T05:51:05.212Z,8.80
2022-10-18T05:53:38.130Z,7.40
2022-10-18T05:56:14.255Z,9.30
2022-10-18T05:58:56.476Z,8.00
2022-10-18T06:01:28.448Z,8.00
2022-10-18T06:04:00.534Z,7.90
2022-10-18T06:06:34.104Z,6.80
2022-10-18T06:09:07.557Z,8.20
2022-10-18T06:11:39.790Z,7.40
2022-10-18T06:14:12.362Z,7.80
2022-10-18T06:16:44.257Z,7.70
2022-10-18T06:19:16.437Z,8.40
2022-10-18T06:21:48.389Z,7.30
2022-10-18T06:24:21.697Z,8.00
2022-10-18T06:26:53.829Z,8.00
2022-10-18T06:29:25.903Z,7.80
2022-10-18T06:31:58.090Z,14.70
2022-10-18T06:34:30.074Z,11.90
2022-10-18T06:37:02.776Z,9.60
2022-10-18T06:39:34.854Z,14.20
2022-10-18T06:42:06.929Z,8.10
2022-10-18T06:44:39.315Z,28.00
2022-10-18T06:47:11.714Z,8.50
2022-10-18T06:49:43.655Z,10.20
2022-10-18T06:52:17.784Z,7.70
2022-10-18T06:54:51.130Z,8.00
2022-10-18T06:57:23.356Z,7.60
2022-10-18T06:59:56.649Z,7.30
2022-10-18T07:02:28.700Z,7.10
2022-10-18T07:05:00.672Z,6.70
2022-10-18T07:07:36.303Z,7.60
2022-10-18T07:10:12.918Z,6.10
2022-10-18T07:12:47.952Z,7.00
2022-10-18T07:15:22.754Z,6.80
2022-10-18T07:17:54.880Z,7.10
2022-10-18T07:20:27.274Z,7.10
2022-10-18T07:23:00.005Z,6.90
2022-10-18T07:25:32.865Z,6.60
2022-10-18T07:28:04.976Z,7.50
2022-10-18T07:30:37.403Z,6.50
2022-10-18T07:33:09.533Z,6.10
2022-10-18T07:35:44.563Z,6.50
2022-10-18T07:38:16.675Z,6.60
2022-10-18T07:40:48.740Z,5.90
2022-10-18T07:43:23.032Z,5.70
2022-10-18T07:45:59.592Z,6.20
2022-10-18T07:48:32.037Z,5.80
2022-10-18T07:51:05.055Z,5.30
2022-10-18T07:53:37.364Z,5.30
2022-10-18T07:56:16.335Z,6.70
2022-10-18T07:58:52.513Z,5.90
2022-10-18T08:01:25.959Z,6.20
2022-10-18T08:04:03.223Z,5.90
2022-10-18T08:09:11.963Z,5.70
2022-10-18T08:11:44.004Z,5.10
2022-10-18T08:14:16.606Z,6.00
2022-10-18T08:16:48.640Z,5.00
2022-10-18T08:19:20.629Z,5.50
2022-10-18T08:21:52.722Z,5.40
2022-10-18T08:24:24.887Z,5.70
2022-10-18T08:26:57.030Z,6.50
2022-10-18T08:29:31.679Z,5.40
2022-10-18T08:32:41.700Z,5.10
2022-10-18T08:35:14.281Z,5.20
2022-10-18T08:37:46.704Z,5.20
2022-10-18T08:40:20.413Z,5.10
2022-10-18T08:43:04.057Z,5.40
2022-10-18T08:45:42.926Z,5.50
2022-10-18T08:48:24.733Z,5.30
2022-10-18T08:50:57.553Z,5.60
2022-10-18T08:53:37.604Z,5.60
2022-10-18T08:56:15.649Z,6.10
2022-10-18T08:58:49.768Z,5.10
2022-10-18T09:01:31.584Z,4.80
2022-10-18T09:04:28.430Z,4.90
2022-10-18T09:07:18.803Z,5.70
2022-10-18T09:14:08.404Z,4.60
2022-10-18T09:21:00.604Z,4.80
2022-10-18T09:23:44.244Z,5.10
2022-10-18T09:30:31.084Z,5.20
2022-10-18T09:33:12.685Z,5.40
2022-10-18T09:35:50.198Z,4.90
2022-10-18T09:38:27.703Z,5.20
2022-10-18T09:41:03.641Z,4.90
2022-10-18T09:51:44.137Z,5.60
2022-10-18T09:58:38.150Z,5.30
2022-10-18T10:01:12.078Z,5.20
2022-10-18T10:03:44.977Z,4.80
2022-10-18T10:06:31.661Z,5.20
2022-10-18T10:09:09.416Z,4.80
2022-10-18T10:15:36.957Z,6.00
2022-10-18T10:18:24.822Z,6.10
2022-10-18T10:21:09.436Z,5.20
2022-10-18T10:23:46.863Z,5.20
2022-10-18T10:26:26.279Z,5.50
2022-10-18T10:28:58.472Z,5.70
2022-10-18T10:31:32.571Z,6.00
2022-10-18T10:34:06.314Z,6.50
2022-10-18T10:36:50.196Z,5.70
2022-10-18T10:39:26.046Z,5.90
2022-10-18T10:42:05.886Z,5.90
2022-10-18T10:44:40.527Z,5.60
2022-10-18T10:47:27.831Z,5.80
2022-10-18T10:50:00.461Z,6.20
2022-10-18T10:52:32.925Z,6.90
2022-10-18T10:55:23.573Z,6.80
2022-10-18T10:57:58.987Z,6.20
2022-10-18T11:00:48.745Z,7.50
2022-10-18T11:03:29.085Z,7.80
2022-10-18T11:06:02.158Z,7.30
2022-10-18T11:08:39.456Z,6.70
2022-10-18T11:11:23.286Z,6.80
2022-10-18T11:14:25.685Z,7.00
2022-10-18T11:17:08.143Z,6.70
2022-10-18T11:19:56.948Z,6.60
2022-10-18T11:22:34.125Z,7.20
2022-10-18T11:25:07.876Z,7.10
2022-10-18T11:27:47.985Z,7.30
2022-10-18T11:30:42.196Z,7.40
2022-10-18T11:33:33.649Z,7.40
2022-10-18T11:39:04.651Z,6.90
2022-10-18T11:41:45.466Z,7.70
2022-10-18T11:44:31.235Z,7.40
2022-10-18T11:47:11.136Z,8.20
2022-10-18T11:50:08.361Z,7.50
2022-10-18T11:52:49.503Z,7.00
2022-10-18T11:55:47.640Z,8.20
2022-10-18T11:58:38.438Z,6.80
2022-10-18T12:01:24.747Z,6.50
2022-10-18T12:04:09.016Z,6.60
2022-10-18T12:06:44.230Z,7.30
2022-10-18T12:09:29.054Z,7.00
2022-10-18T12:12:08.545Z,6.30
2022-10-18T12:14:46.619Z,8.00
2022-10-18T12:17:44.085Z,7.10
2022-10-18T12:20:24.807Z,7.20
2022-10-18T12:26:24.858Z,7.90
2022-10-18T12:29:16.566Z,7.60
2022-10-18T12:31:52.299Z,7.20
2022-10-18T12:43:03.504Z,8.10
2022-10-18T12:45:51.606Z,7.80
2022-10-18T12:48:38.841Z,6.70
2022-10-18T12:51:18.726Z,7.30
2022-10-18T12:53:56.261Z,6.80
2022-10-18T12:56:43.478Z,7.30
2022-10-18T12:59:43.615Z,6.70
2022-10-18T13:02:35.071Z,7.00
2022-10-18T13:06:06.593Z,6.90
2022-10-18T13:08:51.066Z,7.20
2022-10-18T13:11:36.123Z,7.40
2022-10-18T13:14:44.039Z,6.60
2022-10-18T13:17:33.880Z,7.10
2022-10-18T13:20:26.050Z,7.60
2022-10-18T13:23:09.354Z,7.10
2022-10-18T13:25:55.549Z,6.70
2022-10-18T13:28:38.891Z,7.70
2022-10-18T13:31:21.227Z,6.90
2022-10-18T13:33:53.541Z,6.80
2022-10-18T13:36:30.034Z,7.60
2022-10-18T13:39:07.289Z,7.60
2022-10-18T13:42:09.739Z,7.10
2022-10-18T13:44:42.551Z,6.80
2022-10-18T13:47:16.377Z,8.10
2022-10-18T13:50:26.086Z,7.60
2022-10-18T13:53:32.715Z,6.90
2022-10-18T13:56:31.461Z,8.10
2022-10-18T13:59:22.774Z,8.20
2022-10-18T14:02:15.089Z,8.60
2022-10-18T14:05:23.681Z,8.50
2022-10-18T14:08:06.934Z,8.00
2022-10-18T14:11:01.703Z,13.80
2022-10-18T14:13:46.952Z,8.40
2022-10-18T14:16:32.383Z,9.60
2022-10-18T14:19:30.604Z,9.10
2022-10-18T14:22:11.472Z,9.30
2022-10-18T14:24:47.926Z,9.40
2022-10-18T14:27:23.768Z,17.40
2022-10-18T14:30:14.970Z,11.40
2022-10-18T14:32:49.789Z,9.10
2022-10-18T14:36:15.798Z,13.80
2022-10-18T14:38:56.376Z,10.20
2022-10-18T14:41:30.042Z,11.60
2022-10-18T14:44:21.370Z,12.90
2022-10-18T14:46:59.712Z,9.80
2022-10-18T14:49:32.424Z,10.20
2022-10-18T14:52:04.511Z,80.20
2022-10-18T14:54:39.533Z,13.90
2022-10-18T14:57:44.661Z,12.10
2022-10-18T15:00:25.831Z,11.70
2022-10-18T15:02:57.941Z,12.60
2022-10-18T15:05:30.196Z,12.10
2022-10-18T15:08:02.673Z,11.60
2022-10-18T15:10:36.468Z,11.50
2022-10-18T15:13:10.265Z,14.00
2022-10-18T15:15:44.936Z,12.90
2022-10-18T15:18:24.075Z,11.70
2022-10-18T15:21:20.475Z,11.80
2022-10-18T15:23:53.058Z,12.00
2022-10-18T15:26:29.810Z,11.60
2022-10-18T15:29:04.475Z,13.30
2022-10-18T15:31:42.965Z,12.80
2022-10-18T15:34:24.028Z,16.10
2022-10-18T15:36:57.914Z,13.60
2022-10-18T15:39:31.795Z,13.20
2022-10-18T15:42:05.113Z,16.90
2022-10-18T15:44:48.075Z,12.70
2022-10-18T15:47:25.146Z,13.10
2022-10-18T15:49:58.652Z,11.60
2022-10-18T15:52:42.568Z,11.00
2022-10-18T15:55:48.927Z,12.50
2022-10-18T15:58:24.793Z,12.50
2022-10-18T16:01:00.203Z,12.20
2022-10-18T16:03:36.954Z,12.90
2022-10-18T16:06:13.438Z,13.90
2022-10-18T16:08:50.620Z,11.70
2022-10-18T16:11:24.709Z,12.60
2022-10-18T16:13:59.612Z,12.20
2022-10-18T16:16:32.926Z,14.30
2022-10-18T16:19:05.574Z,14.50
2022-10-18T16:21:39.676Z,13.00
2022-10-18T16:24:12.031Z,12.90
2022-10-18T16:26:44.274Z,14.10
2022-10-18T16:29:19.547Z,12.80
2022-10-18T16:31:53.582Z,14.80
2022-10-18T16:34:27.648Z,13.90
2022-10-18T16:36:59.699Z,23.20
2022-10-18T16:39:34.910Z,19.40
2022-10-18T16:42:06.834Z,55.50
2022-10-18T16:44:38.942Z,236.70
2022-10-18T16:47:12.651Z,665.80
2022-10-18T16:49:45.220Z,422.60
2022-10-18T16:55:30.950Z,73.60
2022-10-18T16:58:03.270Z,74.40
2022-10-18T17:00:35.908Z,37.80
2022-10-18T17:03:08.540Z,54.20
2022-10-18T17:05:40.550Z,26.60
2022-10-18T17:08:21.306Z,57.30
2022-10-18T17:10:55.338Z,16.90
2022-10-18T17:13:27.792Z,19.10
2022-10-18T17:16:04.887Z,16.80
2022-10-18T17:18:37.276Z,16.20
2022-10-18T17:21:09.257Z,17.50
2022-10-18T17:23:41.204Z,17.40
2022-10-18T17:26:29.328Z,20.10
2022-10-18T17:29:05.363Z,24.60
2022-10-18T17:31:37.632Z,22.70
2022-10-18T17:34:10.228Z,27.80
2022-10-18T17:36:42.240Z,23.80
2022-10-18T17:39:14.356Z,21.20
2022-10-18T17:41:46.330Z,20.60
2022-10-18T17:44:18.624Z,21.20
2022-10-18T17:46:54.079Z,19.40
2022-10-18T17:49:26.427Z,20.50
2022-10-18T17:52:00.238Z,15.60
2022-10-18T17:54:34.054Z,16.10
2022-10-18T17:57:06.084Z,16.90
2022-10-18T17:59:38.175Z,17.70
2022-10-18T18:02:10.477Z,14.60
2022-10-18T18:04:42.529Z,13.70
2022-10-18T18:07:14.472Z,15.00
2022-10-18T18:09:46.404Z,8.00
2022-10-18T18:12:18.683Z,9.50
2022-10-18T18:14:50.994Z,6.40
2022-10-18T18:21:59.448Z,5.50
2022-10-18T18:29:25.180Z,3.60
2022-10-18T18:31:57.246Z,4.90
2022-10-18T18:35:12.911Z,4.00
2022-10-18T18:37:45.043Z,4.60
2022-10-18T18:40:17.154Z,3.70
2022-10-18T18:46:10.289Z,2.80
2022-10-18T18:49:09.059Z,4.10
2022-10-18T18:51:41.663Z,5.40
2022-10-18T18:54:50.172Z,5.40
2022-10-18T19:01:48.816Z,5.20
2022-10-18T19:04:29.061Z,2.80
2022-10-18T19:07:01.122Z,3.50
2022-10-18T19:09:38.011Z,3.40
2022-10-18T19:12:09.932Z,8.80
2022-10-18T19:14:41.851Z,5.00
2022-10-18T19:17:13.909Z,3.10
2022-10-18T19:19:46.417Z,3.80
2022-10-18T19:22:20.370Z,4.30
2022-10-18T19:24:52.354Z,4.60
2022-10-18T19:27:24.341Z,4.30
2022-10-18T19:29:56.920Z,10.50
2022-10-18T19:38:21.060Z,6.30
2022-10-18T19:40:53.885Z,7.20
2022-10-18T19:43:26.187Z,5.70
2022-10-18T19:46:02.475Z,4.60
2022-10-18T19:48:37.246Z,7.00
2022-10-18T19:51:10.952Z,5.70
2022-10-18T19:53:44.215Z,5.20
2022-10-18T19:56:20.666Z,5.40
2022-10-18T19:58:53.294Z,4.40
2022-10-18T20:01:26.853Z,5.50
2022-10-18T20:03:59.659Z,5.20
2022-10-18T20:06:31.720Z,10.00
2022-10-18T20:09:04.248Z,9.20
2022-10-18T20:11:37.378Z,9.00
2022-10-18T20:14:10.929Z,6.10
2022-10-18T20:16:43.154Z,6.50
2022-10-18T20:19:16.152Z,5.20
2022-10-18T20:21:49.571Z,5.00
2022-10-18T20:24:21.600Z,5.40
2022-10-18T20:29:30.824Z,5.30
2022-10-18T20:32:02.775Z,8.20
2022-10-18T20:34:35.133Z,12.50
2022-10-18T20:37:07.213Z,11.70
2022-10-18T20:39:40.587Z,8.30
2022-10-18T20:42:12.512Z,7.00
2022-10-18T20:44:44.471Z,5.40
2022-10-18T20:47:16.484Z,6.60
2022-10-18T20:49:50.722Z,4.70
2022-10-18T20:52:22.784Z,5.30
2022-10-18T20:54:55.150Z,6.50
2022-10-18T20:57:27.056Z,5.20
2022-10-18T20:59:59.030Z,5.50
2022-10-18T21:02:31.110Z,5.20
2022-10-18T21:05:03.107Z,5.10
2022-10-18T21:07:35.619Z,7.30
2022-10-18T21:10:09.676Z,6.80
2022-10-18T21:12:41.680Z,5.80
2022-10-18T21:15:14.113Z,5.60
2022-10-18T21:17:50.681Z,4.00
2022-10-18T21:20:22.695Z,3.90
2022-10-18T21:22:55.000Z,4.30
2022-10-18T21:25:27.020Z,4.10
2022-10-18T21:27:59.159Z,4.40
2022-10-18T21:30:31.226Z,4.70
2022-10-18T21:33:03.297Z,5.70
2022-10-18T21:35:39.521Z,5.30
2022-10-18T21:38:13.879Z,5.90
2022-10-18T21:40:45.869Z,5.80
2022-10-18T21:43:17.914Z,6.10
2022-10-18T21:45:49.899Z,4.80
2022-10-18T21:51:05.075Z,4.40
2022-10-18T21:53:37.413Z,4.70
2022-10-18T21:56:11.591Z,7.50
2022-10-18T21:58:44.415Z,6.30
2022-10-18T22:01:19.012Z,5.30
2022-10-18T22:03:53.392Z,12.70
2022-10-18T22:06:26.338Z,6.10
2022-10-18T22:09:00.954Z,7.10
2022-10-18T22:11:36.274Z,5.60
2022-10-18T22:14:08.604Z,5.60
2022-10-18T22:16:40.983Z,5.60
2022-10-18T22:19:15.019Z,6.10
2022-10-18T22:21:47.386Z,6.60
2022-10-18T22:24:19.440Z,7.40
2022-10-18T22:26:51.465Z,5.50
2022-10-18T22:29:26.215Z,6.40
2022-10-18T22:31:58.811Z,6.20
2022-10-18T22:34:30.807Z,6.60
2022-10-18T22:37:02.802Z,7.30
2022-10-18T22:39:34.939Z,7.30
2022-10-18T22:42:07.007Z,7.90
2022-10-18T22:44:38.944Z,6.50
2022-10-18T22:47:10.961Z,9.90
2022-10-18T22:49:42.959Z,8.70
2022-10-18T22:52:15.183Z,9.30
2022-10-18T22:54:47.142Z,8.40
2022-10-18T22:57:21.257Z,8.60
2022-10-18T22:59:53.300Z,7.30
2022-10-18T23:02:25.478Z,7.20
2022-10-18T23:04:57.565Z,8.20
2022-10-18T23:07:29.741Z,8.10
2022-10-18T23:10:01.919Z,8.60
2022-10-18T23:12:34.310Z,8.40
2022-10-18T23:15:07.660Z,8.30
2022-10-18T23:17:40.033Z,7.80
2022-10-18T23:20:13.250Z,9.30
2022-10-18T23:22:45.283Z,8.20
2022-10-18T23:25:17.495Z,6.80
2022-10-18T23:27:49.553Z,6.10
2022-10-18T23:30:21.923Z,5.80
2022-10-18T23:32:53.978Z,6.00
2022-10-18T23:35:26.073Z,5.80
2022-10-18T23:37:58.181Z,6.50
2022-10-18T23:40:30.371Z,6.70
2022-10-18T23:43:02.656Z,6.40
2022-10-18T23:45:34.966Z,6.80
2022-10-18T23:48:07.478Z,7.60
2022-10-18T23:50:39.554Z,9.20
2022-10-18T23:53:11.739Z,9.30
2022-10-18T23:55:53.761Z,9.30
2022-10-18T23:58:27.059Z,7.70
